sensor_id;sensor_type;location;lat;lon;timestamp;temperature;humidity
17080;DHT22;8655;57.106;-2.088;2023-05-02T03:11:27;18.30;60.30
17080;DHT22;8655;57.106;-2.088;2023-05-02T03:13:53;18.60;60.70
17080;DHT22;8655;57.106;-2.088;2023-05-02T03:16:42;19.00;60.10
17080;DHT22;8655;57.106;-2.088;2023-05-02T03:19:08;19.60;59.50
17080;DHT22;8655;57.106;-2.088;2023-05-02T03:21:34;20.00;59.20
17080;DHT22;8655;57.106;-2.088;2023-05-02T03:24:01;20.30;59.10
17080;DHT22;8655;57.106;-2.088;2023-05-02T03:26:28;20.50;58.60
17080;DHT22;8655;57.106;-2.088;2023-05-02T03:28:54;20.70;58.00
17080;DHT22;8655;57.106;-2.088;2023-05-02T03:31:20;20.80;57.70
17080;DHT22;8655;57.106;-2.088;2023-05-02T03:33:47;20.90;57.50
17080;DHT22;8655;57.106;-2.088;2023-05-02T03:36:13;21.00;57.40
17080;DHT22;8655;57.106;-2.088;2023-05-02T03:38:39;21.10;57.20
17080;DHT22;8655;57.106;-2.088;2023-05-02T03:41:05;21.10;57.10
17080;DHT22;8655;57.106;-2.088;2023-05-02T03:43:30;21.20;57.00
17080;DHT22;8655;57.106;-2.088;2023-05-02T03:45:57;21.20;56.90
17080;DHT22;8655;57.106;-2.088;2023-05-02T03:48:22;21.30;57.00
17080;DHT22;8655;57.106;-2.088;2023-05-02T03:50:49;21.30;56.80
17080;DHT22;8655;57.106;-2.088;2023-05-02T03:53:15;21.30;56.70
17080;DHT22;8655;57.106;-2.088;2023-05-02T03:55:42;21.30;56.70
17080;DHT22;8655;57.106;-2.088;2023-05-02T03:58:09;21.30;56.60
17080;DHT22;8655;57.106;-2.088;2023-05-02T04:00:35;21.30;56.50
17080;DHT22;8655;57.106;-2.088;2023-05-02T04:03:01;21.30;56.40
17080;DHT22;8655;57.106;-2.088;2023-05-02T04:05:27;21.30;56.40
17080;DHT22;8655;57.106;-2.088;2023-05-02T04:07:54;21.30;56.30
17080;DHT22;8655;57.106;-2.088;2023-05-02T04:10:19;21.30;56.30
17080;DHT22;8655;57.106;-2.088;2023-05-02T04:12:45;21.30;56.20
17080;DHT22;8655;57.106;-2.088;2023-05-02T04:15:11;21.30;56.10
17080;DHT22;8655;57.106;-2.088;2023-05-02T04:17:37;21.30;56.10
17080;DHT22;8655;57.106;-2.088;2023-05-02T04:20:04;21.30;56.00
17080;DHT22;8655;57.106;-2.088;2023-05-02T04:22:30;21.20;55.90
17080;DHT22;8655;57.106;-2.088;2023-05-02T04:24:55;21.20;55.90
17080;DHT22;8655;57.106;-2.088;2023-05-02T04:27:21;21.20;55.80
17080;DHT22;8655;57.106;-2.088;2023-05-02T04:29:48;21.20;55.80
17080;DHT22;8655;57.106;-2.088;2023-05-02T04:32:14;21.20;55.80
17080;DHT22;8655;57.106;-2.088;2023-05-02T04:34:40;21.20;55.70
17080;DHT22;8655;57.106;-2.088;2023-05-02T04:37:05;21.20;55.70
17080;DHT22;8655;57.106;-2.088;2023-05-02T04:39:32;21.20;55.60
17080;DHT22;8655;57.106;-2.088;2023-05-02T04:41:58;21.20;55.60
17080;DHT22;8655;57.106;-2.088;2023-05-02T04:44:23;21.20;55.60
17080;DHT22;8655;57.106;-2.088;2023-05-02T04:46:49;21.10;55.40
17080;DHT22;8655;57.106;-2.088;2023-05-02T04:49:15;21.10;55.40
17080;DHT22;8655;57.106;-2.088;2023-05-02T04:51:41;21.10;55.30
17080;DHT22;8655;57.106;-2.088;2023-05-02T04:54:07;21.10;55.30
17080;DHT22;8655;57.106;-2.088;2023-05-02T04:56:33;21.10;55.30
17080;DHT22;8655;57.106;-2.088;2023-05-02T04:58:59;21.10;55.30
17080;DHT22;8655;57.106;-2.088;2023-05-02T05:01:24;21.00;55.20
17080;DHT22;8655;57.106;-2.088;2023-05-02T05:03:53;21.00;55.20
17080;DHT22;8655;57.106;-2.088;2023-05-02T05:06:18;21.00;55.10
17080;DHT22;8655;57.106;-2.088;2023-05-02T05:08:44;21.00;55.10
17080;DHT22;8655;57.106;-2.088;2023-05-02T05:11:11;21.00;55.00
17080;DHT22;8655;57.106;-2.088;2023-05-02T05:13:37;21.00;55.00
17080;DHT22;8655;57.106;-2.088;2023-05-02T05:16:02;20.90;54.90
17080;DHT22;8655;57.106;-2.088;2023-05-02T05:18:29;20.90;54.90
17080;DHT22;8655;57.106;-2.088;2023-05-02T05:20:55;20.90;54.80
17080;DHT22;8655;57.106;-2.088;2023-05-02T05:23:21;20.90;54.80
17080;DHT22;8655;57.106;-2.088;2023-05-02T05:25:47;20.90;54.80
17080;DHT22;8655;57.106;-2.088;2023-05-02T05:28:13;20.90;54.70
17080;DHT22;8655;57.106;-2.088;2023-05-02T05:30:38;20.80;54.60
17080;DHT22;8655;57.106;-2.088;2023-05-02T05:33:04;20.80;54.60
17080;DHT22;8655;57.106;-2.088;2023-05-02T05:35:30;20.80;54.60
17080;DHT22;8655;57.106;-2.088;2023-05-02T05:37:58;20.80;54.50
17080;DHT22;8655;57.106;-2.088;2023-05-02T05:40:24;20.80;54.50
17080;DHT22;8655;57.106;-2.088;2023-05-02T05:42:50;20.80;54.50
17080;DHT22;8655;57.106;-2.088;2023-05-02T05:45:16;20.80;54.40
17080;DHT22;8655;57.106;-2.088;2023-05-02T05:47:43;20.70;54.30
17080;DHT22;8655;57.106;-2.088;2023-05-02T05:50:09;20.70;54.30
17080;DHT22;8655;57.106;-2.088;2023-05-02T05:52:35;20.70;54.30
17080;DHT22;8655;57.106;-2.088;2023-05-02T05:55:02;20.70;54.30
17080;DHT22;8655;57.106;-2.088;2023-05-02T05:57:28;20.70;54.20
17080;DHT22;8655;57.106;-2.088;2023-05-02T05:59:54;20.70;54.20
17080;DHT22;8655;57.106;-2.088;2023-05-02T06:02:20;20.60;54.10
17080;DHT22;8655;57.106;-2.088;2023-05-02T06:04:45;20.60;54.10
17080;DHT22;8655;57.106;-2.088;2023-05-02T06:07:11;20.70;54.10
17080;DHT22;8655;57.106;-2.088;2023-05-02T06:09:37;20.60;54.00
17080;DHT22;8655;57.106;-2.088;2023-05-02T06:12:02;20.60;54.00
17080;DHT22;8655;57.106;-2.088;2023-05-02T06:14:28;20.60;54.00
17080;DHT22;8655;57.106;-2.088;2023-05-02T06:16:54;20.60;54.00
17080;DHT22;8655;57.106;-2.088;2023-05-02T06:19:19;20.60;53.90
17080;DHT22;8655;57.106;-2.088;2023-05-02T06:21:45;20.60;53.90
17080;DHT22;8655;57.106;-2.088;2023-05-02T06:24:11;20.60;53.80
17080;DHT22;8655;57.106;-2.088;2023-05-02T06:26:36;20.50;53.70
17080;DHT22;8655;57.106;-2.088;2023-05-02T06:29:02;20.50;53.70
17080;DHT22;8655;57.106;-2.088;2023-05-02T06:31:28;20.50;53.70
17080;DHT22;8655;57.106;-2.088;2023-05-02T06:33:53;20.50;53.70
17080;DHT22;8655;57.106;-2.088;2023-05-02T06:36:20;20.50;53.60
17080;DHT22;8655;57.106;-2.088;2023-05-02T06:38:46;20.50;53.60
17080;DHT22;8655;57.106;-2.088;2023-05-02T06:41:13;20.40;53.50
17080;DHT22;8655;57.106;-2.088;2023-05-02T06:43:39;20.50;53.50
17080;DHT22;8655;57.106;-2.088;2023-05-02T06:46:05;20.40;53.50
17080;DHT22;8655;57.106;-2.088;2023-05-02T06:48:30;20.40;53.50
17080;DHT22;8655;57.106;-2.088;2023-05-02T06:50:56;20.40;53.40
17080;DHT22;8655;57.106;-2.088;2023-05-02T06:53:22;20.40;53.40
17080;DHT22;8655;57.106;-2.088;2023-05-02T06:55:48;20.40;53.40
17080;DHT22;8655;57.106;-2.088;2023-05-02T06:58:13;20.40;53.40
17080;DHT22;8655;57.106;-2.088;2023-05-02T07:00:39;20.40;53.30
17080;DHT22;8655;57.106;-2.088;2023-05-02T07:03:05;20.30;53.20
17080;DHT22;8655;57.106;-2.088;2023-05-02T07:05:31;20.30;53.20
17080;DHT22;8655;57.106;-2.088;2023-05-02T07:07:56;20.30;53.20
17080;DHT22;8655;57.106;-2.088;2023-05-02T07:10:22;20.30;53.20
17080;DHT22;8655;57.106;-2.088;2023-05-02T07:12:48;20.30;53.20
17080;DHT22;8655;57.106;-2.088;2023-05-02T07:15:13;20.30;53.10
17080;DHT22;8655;57.106;-2.088;2023-05-02T07:17:40;20.30;53.10
17080;DHT22;8655;57.106;-2.088;2023-05-02T07:20:07;20.30;53.10
17080;DHT22;8655;57.106;-2.088;2023-05-02T07:22:33;20.30;53.10
17080;DHT22;8655;57.106;-2.088;2023-05-02T07:25:00;20.20;53.00
17080;DHT22;8655;57.106;-2.088;2023-05-02T07:27:26;20.20;53.00
17080;DHT22;8655;57.106;-2.088;2023-05-02T07:29:52;20.20;52.90
17080;DHT22;8655;57.106;-2.088;2023-05-02T07:32:19;20.20;53.00
17080;DHT22;8655;57.106;-2.088;2023-05-02T07:34:46;20.20;52.90
17080;DHT22;8655;57.106;-2.088;2023-05-02T07:37:12;20.20;52.90
17080;DHT22;8655;57.106;-2.088;2023-05-02T07:39:37;20.20;52.90
17080;DHT22;8655;57.106;-2.088;2023-05-02T07:42:03;20.20;52.90
17080;DHT22;8655;57.106;-2.088;2023-05-02T07:44:28;20.20;52.80
17080;DHT22;8655;57.106;-2.088;2023-05-02T07:46:54;20.20;52.80
17080;DHT22;8655;57.106;-2.088;2023-05-02T07:49:20;20.20;52.80
17080;DHT22;8655;57.106;-2.088;2023-05-02T07:51:45;20.10;52.70
17080;DHT22;8655;57.106;-2.088;2023-05-02T07:54:18;20.10;52.70
17080;DHT22;8655;57.106;-2.088;2023-05-02T07:56:44;20.10;52.60
17080;DHT22;8655;57.106;-2.088;2023-05-02T07:59:11;20.10;52.70
17080;DHT22;8655;57.106;-2.088;2023-05-02T08:01:38;20.10;52.60
17080;DHT22;8655;57.106;-2.088;2023-05-02T08:04:04;20.10;52.60
17080;DHT22;8655;57.106;-2.088;2023-05-02T08:06:29;20.10;52.60
17080;DHT22;8655;57.106;-2.088;2023-05-02T08:08:57;20.10;52.60
17080;DHT22;8655;57.106;-2.088;2023-05-02T08:11:23;20.10;52.50
17080;DHT22;8655;57.106;-2.088;2023-05-02T08:13:53;20.10;52.50
17080;DHT22;8655;57.106;-2.088;2023-05-02T08:16:19;20.10;52.50
17080;DHT22;8655;57.106;-2.088;2023-05-02T08:18:45;20.00;52.40
17080;DHT22;8655;57.106;-2.088;2023-05-02T08:21:11;20.00;52.40
17080;DHT22;8655;57.106;-2.088;2023-05-02T08:23:37;20.00;52.40
17080;DHT22;8655;57.106;-2.088;2023-05-02T08:26:03;20.00;52.40
17080;DHT22;8655;57.106;-2.088;2023-05-02T08:28:29;20.00;52.30
17080;DHT22;8655;57.106;-2.088;2023-05-02T08:30:55;20.00;52.30
17080;DHT22;8655;57.106;-2.088;2023-05-02T08:33:21;20.00;52.40
17080;DHT22;8655;57.106;-2.088;2023-05-02T08:35:47;20.00;52.30
17080;DHT22;8655;57.106;-2.088;2023-05-02T08:38:12;20.00;52.30
17080;DHT22;8655;57.106;-2.088;2023-05-02T08:40:38;20.00;52.30
17080;DHT22;8655;57.106;-2.088;2023-05-02T08:43:04;20.00;52.30
17080;DHT22;8655;57.106;-2.088;2023-05-02T08:45:40;20.00;52.20
17080;DHT22;8655;57.106;-2.088;2023-05-02T08:48:11;20.00;52.20
17080;DHT22;8655;57.106;-2.088;2023-05-02T08:50:38;20.00;52.20
17080;DHT22;8655;57.106;-2.088;2023-05-02T08:53:07;20.00;52.20
17080;DHT22;8655;57.106;-2.088;2023-05-02T08:55:36;20.00;52.10
17080;DHT22;8655;57.106;-2.088;2023-05-02T08:58:04;20.00;52.10
17080;DHT22;8655;57.106;-2.088;2023-05-02T09:00:40;19.90;52.00
17080;DHT22;8655;57.106;-2.088;2023-05-02T09:05:52;19.90;52.00
17080;DHT22;8655;57.106;-2.088;2023-05-02T09:08:22;19.90;52.00
17080;DHT22;8655;57.106;-2.088;2023-05-02T09:10:48;19.90;52.00
17080;DHT22;8655;57.106;-2.088;2023-05-02T09:16:03;19.90;51.90
17080;DHT22;8655;57.106;-2.088;2023-05-02T09:18:38;19.90;51.90
17080;DHT22;8655;57.106;-2.088;2023-05-02T09:21:06;19.90;51.90
17080;DHT22;8655;57.106;-2.088;2023-05-02T09:23:44;19.90;51.90
17080;DHT22;8655;57.106;-2.088;2023-05-02T09:28:44;19.90;51.90
17080;DHT22;8655;57.106;-2.088;2023-05-02T09:31:17;19.90;51.80
17080;DHT22;8655;57.106;-2.088;2023-05-02T09:33:44;19.90;52.10
17080;DHT22;8655;57.106;-2.088;2023-05-02T09:36:12;19.80;51.80
17080;DHT22;8655;57.106;-2.088;2023-05-02T09:38:39;19.80;51.70
17080;DHT22;8655;57.106;-2.088;2023-05-02T09:41:05;19.80;51.70
17080;DHT22;8655;57.106;-2.088;2023-05-02T09:43:31;19.80;51.70
17080;DHT22;8655;57.106;-2.088;2023-05-02T09:46:02;19.80;51.70
17080;DHT22;8655;57.106;-2.088;2023-05-02T09:48:30;19.80;51.60
17080;DHT22;8655;57.106;-2.088;2023-05-02T09:50:56;19.80;51.60
17080;DHT22;8655;57.106;-2.088;2023-05-02T09:53:26;19.80;51.60
17080;DHT22;8655;57.106;-2.088;2023-05-02T09:56:05;19.80;51.70
17080;DHT22;8655;57.106;-2.088;2023-05-02T09:58:30;19.80;51.60
17080;DHT22;8655;57.106;-2.088;2023-05-02T10:00:57;19.80;51.60
17080;DHT22;8655;57.106;-2.088;2023-05-02T10:03:25;19.80;51.60
17080;DHT22;8655;57.106;-2.088;2023-05-02T10:05:51;19.80;51.60
17080;DHT22;8655;57.106;-2.088;2023-05-02T10:08:20;19.80;51.50
17080;DHT22;8655;57.106;-2.088;2023-05-02T10:10:50;19.80;51.60
17080;DHT22;8655;57.106;-2.088;2023-05-02T10:13:19;19.80;51.50
17080;DHT22;8655;57.106;-2.088;2023-05-02T10:15:49;19.70;51.40
17080;DHT22;8655;57.106;-2.088;2023-05-02T10:18:20;19.80;51.50
17080;DHT22;8655;57.106;-2.088;2023-05-02T10:20:58;19.70;51.40
17080;DHT22;8655;57.106;-2.088;2023-05-02T10:23:26;19.70;51.40
17080;DHT22;8655;57.106;-2.088;2023-05-02T10:25:53;19.70;51.40
17080;DHT22;8655;57.106;-2.088;2023-05-02T10:28:19;19.70;51.40
17080;DHT22;8655;57.106;-2.088;2023-05-02T10:30:45;19.70;51.40
17080;DHT22;8655;57.106;-2.088;2023-05-02T10:33:15;19.80;51.40
17080;DHT22;8655;57.106;-2.088;2023-05-02T10:35:44;19.70;51.30
17080;DHT22;8655;57.106;-2.088;2023-05-02T10:38:16;19.70;51.30
17080;DHT22;8655;57.106;-2.088;2023-05-02T10:41:21;19.70;51.30
17080;DHT22;8655;57.106;-2.088;2023-05-02T10:43:39;19.70;51.30
17080;DHT22;8655;57.106;-2.088;2023-05-02T10:46:36;19.70;51.30
17080;DHT22;8655;57.106;-2.088;2023-05-02T10:49:09;19.70;51.20
17080;DHT22;8655;57.106;-2.088;2023-05-02T10:51:40;19.70;51.20
17080;DHT22;8655;57.106;-2.088;2023-05-02T10:54:32;19.70;51.30
17080;DHT22;8655;57.106;-2.088;2023-05-02T10:59:29;19.70;51.20
17080;DHT22;8655;57.106;-2.088;2023-05-02T11:01:56;19.70;51.20
17080;DHT22;8655;57.106;-2.088;2023-05-02T11:04:23;19.70;51.20
17080;DHT22;8655;57.106;-2.088;2023-05-02T11:11:50;19.60;51.10
17080;DHT22;8655;57.106;-2.088;2023-05-02T11:19:24;19.60;51.10
17080;DHT22;8655;57.106;-2.088;2023-05-02T11:21:50;19.60;51.00
17080;DHT22;8655;57.106;-2.088;2023-05-02T11:24:38;19.60;51.00
17080;DHT22;8655;57.106;-2.088;2023-05-02T11:30:08;19.60;51.00
17080;DHT22;8655;57.106;-2.088;2023-05-02T11:35:27;19.60;51.00
17080;DHT22;8655;57.106;-2.088;2023-05-02T11:38:10;19.60;51.00
17080;DHT22;8655;57.106;-2.088;2023-05-02T11:40:36;19.60;51.00
17080;DHT22;8655;57.106;-2.088;2023-05-02T11:43:12;19.60;51.00
17080;DHT22;8655;57.106;-2.088;2023-05-02T11:45:39;19.60;51.00
17080;DHT22;8655;57.106;-2.088;2023-05-02T11:48:06;19.60;51.00
17080;DHT22;8655;57.106;-2.088;2023-05-02T11:50:45;19.60;51.00
17080;DHT22;8655;57.106;-2.088;2023-05-02T11:53:16;19.60;50.90
17080;DHT22;8655;57.106;-2.088;2023-05-02T11:55:47;19.60;51.00
17080;DHT22;8655;57.106;-2.088;2023-05-02T11:58:17;19.60;50.90
17080;DHT22;8655;57.106;-2.088;2023-05-02T12:00:44;19.60;50.90
17080;DHT22;8655;57.106;-2.088;2023-05-02T12:03:26;19.70;51.00
17080;DHT22;8655;57.106;-2.088;2023-05-02T12:05:52;19.50;50.80
17080;DHT22;8655;57.106;-2.088;2023-05-02T12:08:27;19.60;50.90
17080;DHT22;8655;57.106;-2.088;2023-05-02T12:10:54;19.50;50.70
17080;DHT22;8655;57.106;-2.088;2023-05-02T12:13:22;19.50;50.80
17080;DHT22;8655;57.106;-2.088;2023-05-02T12:15:49;19.50;50.80
17080;DHT22;8655;57.106;-2.088;2023-05-02T12:18:16;19.60;50.80
17080;DHT22;8655;57.106;-2.088;2023-05-02T12:20:43;19.50;50.80
17080;DHT22;8655;57.106;-2.088;2023-05-02T12:23:09;19.50;50.70
17080;DHT22;8655;57.106;-2.088;2023-05-02T12:25:40;19.50;50.70
17080;DHT22;8655;57.106;-2.088;2023-05-02T12:28:06;19.50;50.70
17080;DHT22;8655;57.106;-2.088;2023-05-02T12:30:34;19.50;50.70
17080;DHT22;8655;57.106;-2.088;2023-05-02T12:33:01;19.50;50.70
17080;DHT22;8655;57.106;-2.088;2023-05-02T12:35:28;19.50;50.70
17080;DHT22;8655;57.106;-2.088;2023-05-02T12:38:06;19.50;50.70
17080;DHT22;8655;57.106;-2.088;2023-05-02T12:40:32;19.50;50.70
17080;DHT22;8655;57.106;-2.088;2023-05-02T12:43:02;19.50;50.70
17080;DHT22;8655;57.106;-2.088;2023-05-02T12:45:29;19.50;50.60
17080;DHT22;8655;57.106;-2.088;2023-05-02T12:47:59;19.50;50.60
17080;DHT22;8655;57.106;-2.088;2023-05-02T12:50:36;19.50;50.60
17080;DHT22;8655;57.106;-2.088;2023-05-02T12:53:02;19.50;51.20
17080;DHT22;8655;57.106;-2.088;2023-05-02T12:55:28;19.50;50.60
17080;DHT22;8655;57.106;-2.088;2023-05-02T12:58:07;19.50;50.60
17080;DHT22;8655;57.106;-2.088;2023-05-02T13:00:37;19.50;50.60
17080;DHT22;8655;57.106;-2.088;2023-05-02T13:03:04;19.50;50.60
17080;DHT22;8655;57.106;-2.088;2023-05-02T13:05:30;19.50;50.60
17080;DHT22;8655;57.106;-2.088;2023-05-02T13:07:56;19.50;50.60
17080;DHT22;8655;57.106;-2.088;2023-05-02T13:10:23;19.50;50.60
17080;DHT22;8655;57.106;-2.088;2023-05-02T13:12:51;19.40;50.50
17080;DHT22;8655;57.106;-2.088;2023-05-02T13:15:17;19.40;51.10
17080;DHT22;8655;57.106;-2.088;2023-05-02T13:17:44;19.40;50.50
17080;DHT22;8655;57.106;-2.088;2023-05-02T13:20:10;19.40;50.50
17080;DHT22;8655;57.106;-2.088;2023-05-02T13:22:36;19.40;50.40
17080;DHT22;8655;57.106;-2.088;2023-05-02T13:25:05;19.40;50.50
17080;DHT22;8655;57.106;-2.088;2023-05-02T13:27:32;19.40;50.40
17080;DHT22;8655;57.106;-2.088;2023-05-02T13:29:59;19.50;50.50
17080;DHT22;8655;57.106;-2.088;2023-05-02T13:32:26;19.40;50.40
17080;DHT22;8655;57.106;-2.088;2023-05-02T13:34:52;19.40;50.40
17080;DHT22;8655;57.106;-2.088;2023-05-02T13:37:18;19.40;50.40
17080;DHT22;8655;57.106;-2.088;2023-05-02T13:39:44;19.40;50.40
17080;DHT22;8655;57.106;-2.088;2023-05-02T13:42:10;19.40;50.30
17080;DHT22;8655;57.106;-2.088;2023-05-02T13:44:36;19.40;50.30
17080;DHT22;8655;57.106;-2.088;2023-05-02T13:47:02;19.40;50.30
17080;DHT22;8655;57.106;-2.088;2023-05-02T13:49:28;19.40;50.30
17080;DHT22;8655;57.106;-2.088;2023-05-02T13:51:54;19.40;50.30
17080;DHT22;8655;57.106;-2.088;2023-05-02T13:54:20;19.40;50.30
17080;DHT22;8655;57.106;-2.088;2023-05-02T13:56:46;19.40;50.30
17080;DHT22;8655;57.106;-2.088;2023-05-02T13:59:11;19.40;50.30
17080;DHT22;8655;57.106;-2.088;2023-05-02T14:01:37;19.40;50.30
17080;DHT22;8655;57.106;-2.088;2023-05-02T14:04:06;19.40;50.20
17080;DHT22;8655;57.106;-2.088;2023-05-02T14:06:36;19.40;50.20
17080;DHT22;8655;57.106;-2.088;2023-05-02T14:09:02;19.40;50.20
17080;DHT22;8655;57.106;-2.088;2023-05-02T14:11:28;19.40;50.20
17080;DHT22;8655;57.106;-2.088;2023-05-02T14:13:53;19.40;50.20
17080;DHT22;8655;57.106;-2.088;2023-05-02T14:16:21;19.40;50.20
17080;DHT22;8655;57.106;-2.088;2023-05-02T14:18:47;19.40;50.10
17080;DHT22;8655;57.106;-2.088;2023-05-02T14:21:15;19.40;50.10
17080;DHT22;8655;57.106;-2.088;2023-05-02T14:23:40;19.40;50.10
17080;DHT22;8655;57.106;-2.088;2023-05-02T14:26:06;19.40;50.10
17080;DHT22;8655;57.106;-2.088;2023-05-02T14:28:32;19.40;50.10
17080;DHT22;8655;57.106;-2.088;2023-05-02T14:30:58;19.40;50.10
17080;DHT22;8655;57.106;-2.088;2023-05-02T14:33:23;19.40;50.00
17080;DHT22;8655;57.106;-2.088;2023-05-02T14:35:49;19.40;50.00
17080;DHT22;8655;57.106;-2.088;2023-05-02T14:38:15;19.40;50.00
17080;DHT22;8655;57.106;-2.088;2023-05-02T14:40:40;19.40;50.00
17080;DHT22;8655;57.106;-2.088;2023-05-02T14:43:06;19.30;49.90
17080;DHT22;8655;57.106;-2.088;2023-05-02T14:45:32;19.30;49.90
17080;DHT22;8655;57.106;-2.088;2023-05-02T14:47:58;19.30;49.90
17080;DHT22;8655;57.106;-2.088;2023-05-02T14:50:24;19.30;49.90
17080;DHT22;8655;57.106;-2.088;2023-05-02T14:52:50;19.30;49.90
17080;DHT22;8655;57.106;-2.088;2023-05-02T14:55:16;19.30;49.80
17080;DHT22;8655;57.106;-2.088;2023-05-02T14:57:42;19.30;49.80
17080;DHT22;8655;57.106;-2.088;2023-05-02T15:00:08;19.30;49.80
17080;DHT22;8655;57.106;-2.088;2023-05-02T15:02:36;19.30;49.80
17080;DHT22;8655;57.106;-2.088;2023-05-02T15:05:03;19.30;49.80
17080;DHT22;8655;57.106;-2.088;2023-05-02T15:07:30;19.30;49.80
17080;DHT22;8655;57.106;-2.088;2023-05-02T15:09:55;19.30;49.80
17080;DHT22;8655;57.106;-2.088;2023-05-02T15:12:21;19.30;49.80
17080;DHT22;8655;57.106;-2.088;2023-05-02T15:14:47;19.30;49.80
17080;DHT22;8655;57.106;-2.088;2023-05-02T15:17:12;19.30;49.80
17080;DHT22;8655;57.106;-2.088;2023-05-02T15:19:38;19.30;49.80
17080;DHT22;8655;57.106;-2.088;2023-05-02T15:22:04;19.30;49.80
17080;DHT22;8655;57.106;-2.088;2023-05-02T15:24:29;19.30;49.80
17080;DHT22;8655;57.106;-2.088;2023-05-02T15:26:55;19.30;49.80
17080;DHT22;8655;57.106;-2.088;2023-05-02T15:29:21;19.30;49.70
17080;DHT22;8655;57.106;-2.088;2023-05-02T15:31:47;19.30;49.80
17080;DHT22;8655;57.106;-2.088;2023-05-02T15:34:12;19.30;49.70
17080;DHT22;8655;57.106;-2.088;2023-05-02T15:36:38;19.30;49.70
17080;DHT22;8655;57.106;-2.088;2023-05-02T15:39:05;19.30;49.70
17080;DHT22;8655;57.106;-2.088;2023-05-02T15:41:31;19.20;49.60
17080;DHT22;8655;57.106;-2.088;2023-05-02T15:43:57;19.30;49.70
17080;DHT22;8655;57.106;-2.088;2023-05-02T15:46:23;19.20;50.20
17080;DHT22;8655;57.106;-2.088;2023-05-02T15:48:49;19.20;49.60
17080;DHT22;8655;57.106;-2.088;2023-05-02T15:51:15;19.20;49.60
17080;DHT22;8655;57.106;-2.088;2023-05-02T15:53:41;19.20;49.60
17080;DHT22;8655;57.106;-2.088;2023-05-02T15:56:12;19.20;49.60
17080;DHT22;8655;57.106;-2.088;2023-05-02T15:58:39;19.20;49.60
17080;DHT22;8655;57.106;-2.088;2023-05-02T16:01:05;19.20;49.50
17080;DHT22;8655;57.106;-2.088;2023-05-02T16:03:31;19.20;49.50
17080;DHT22;8655;57.106;-2.088;2023-05-02T16:05:57;19.20;49.50
17080;DHT22;8655;57.106;-2.088;2023-05-02T16:08:26;19.20;49.40
17080;DHT22;8655;57.106;-2.088;2023-05-02T16:10:52;19.20;49.40
17080;DHT22;8655;57.106;-2.088;2023-05-02T16:13:18;19.20;49.40
17080;DHT22;8655;57.106;-2.088;2023-05-02T16:15:44;19.20;49.40
17080;DHT22;8655;57.106;-2.088;2023-05-02T16:18:13;19.20;49.30
17080;DHT22;8655;57.106;-2.088;2023-05-02T16:20:39;19.20;49.40
17080;DHT22;8655;57.106;-2.088;2023-05-02T16:23:05;19.20;49.40
17080;DHT22;8655;57.106;-2.088;2023-05-02T16:25:30;19.20;49.30
17080;DHT22;8655;57.106;-2.088;2023-05-02T16:27:57;19.20;49.30
17080;DHT22;8655;57.106;-2.088;2023-05-02T16:30:22;19.20;49.30
17080;DHT22;8655;57.106;-2.088;2023-05-02T16:32:48;19.20;49.30
17080;DHT22;8655;57.106;-2.088;2023-05-02T16:35:14;19.20;49.30
17080;DHT22;8655;57.106;-2.088;2023-05-02T16:37:40;19.20;49.30
17080;DHT22;8655;57.106;-2.088;2023-05-02T16:40:07;19.20;49.20
17080;DHT22;8655;57.106;-2.088;2023-05-02T16:42:33;19.20;49.20
17080;DHT22;8655;57.106;-2.088;2023-05-02T16:44:59;19.20;49.20
17080;DHT22;8655;57.106;-2.088;2023-05-02T16:47:25;19.20;49.20
17080;DHT22;8655;57.106;-2.088;2023-05-02T16:49:57;19.20;49.20
17080;DHT22;8655;57.106;-2.088;2023-05-02T16:52:24;19.20;49.20
17080;DHT22;8655;57.106;-2.088;2023-05-02T16:54:50;19.20;49.20
17080;DHT22;8655;57.106;-2.088;2023-05-02T16:57:16;19.20;49.20
17080;DHT22;8655;57.106;-2.088;2023-05-02T16:59:50;19.20;49.20
17080;DHT22;8655;57.106;-2.088;2023-05-02T17:02:16;19.20;49.10
17080;DHT22;8655;57.106;-2.088;2023-05-02T17:04:43;19.10;49.00
17080;DHT22;8655;57.106;-2.088;2023-05-02T17:07:09;19.10;49.00
17080;DHT22;8655;57.106;-2.088;2023-05-02T17:09:37;19.10;49.00
17080;DHT22;8655;57.106;-2.088;2023-05-02T17:12:04;19.10;49.00
17080;DHT22;8655;57.106;-2.088;2023-05-02T17:14:30;19.10;49.00
17080;DHT22;8655;57.106;-2.088;2023-05-02T17:16:57;19.10;49.00
17080;DHT22;8655;57.106;-2.088;2023-05-02T17:19:23;19.10;48.90
17080;DHT22;8655;57.106;-2.088;2023-05-02T17:21:54;19.10;48.90
17080;DHT22;8655;57.106;-2.088;2023-05-02T17:24:21;19.10;48.90
17080;DHT22;8655;57.106;-2.088;2023-05-02T17:26:47;19.10;48.90
17080;DHT22;8655;57.106;-2.088;2023-05-02T17:29:12;19.10;48.90
17080;DHT22;8655;57.106;-2.088;2023-05-02T17:31:38;19.10;48.90
17080;DHT22;8655;57.106;-2.088;2023-05-02T17:34:04;19.10;48.90
17080;DHT22;8655;57.106;-2.088;2023-05-02T17:36:30;19.10;48.90
17080;DHT22;8655;57.106;-2.088;2023-05-02T17:38:57;19.10;48.90
17080;DHT22;8655;57.106;-2.088;2023-05-02T17:41:23;19.10;48.80
17080;DHT22;8655;57.106;-2.088;2023-05-02T17:43:49;19.10;48.80
17080;DHT22;8655;57.106;-2.088;2023-05-02T17:46:14;19.10;48.80
17080;DHT22;8655;57.106;-2.088;2023-05-02T17:48:44;19.10;48.90
17080;DHT22;8655;57.106;-2.088;2023-05-02T17:51:10;19.10;48.80
17080;DHT22;8655;57.106;-2.088;2023-05-02T17:53:37;19.10;48.80
17080;DHT22;8655;57.106;-2.088;2023-05-02T17:56:04;19.10;48.80
17080;DHT22;8655;57.106;-2.088;2023-05-02T17:58:30;19.10;48.70
17080;DHT22;8655;57.106;-2.088;2023-05-02T18:00:57;19.10;48.70
17080;DHT22;8655;57.106;-2.088;2023-05-02T18:03:23;19.10;48.70
17080;DHT22;8655;57.106;-2.088;2023-05-02T18:05:49;19.10;48.70
17080;DHT22;8655;57.106;-2.088;2023-05-02T18:08:14;19.10;48.70
17080;DHT22;8655;57.106;-2.088;2023-05-02T18:10:41;19.10;48.70
17080;DHT22;8655;57.106;-2.088;2023-05-02T18:13:07;19.10;48.70
17080;DHT22;8655;57.106;-2.088;2023-05-02T18:15:33;19.10;48.70
17080;DHT22;8655;57.106;-2.088;2023-05-02T18:17:58;19.10;48.70
17080;DHT22;8655;57.106;-2.088;2023-05-02T18:20:24;19.10;48.70
17080;DHT22;8655;57.106;-2.088;2023-05-02T18:22:50;19.10;48.70
17080;DHT22;8655;57.106;-2.088;2023-05-02T18:25:16;19.10;48.60
17080;DHT22;8655;57.106;-2.088;2023-05-02T18:27:42;19.10;48.60
17080;DHT22;8655;57.106;-2.088;2023-05-02T18:30:09;19.10;48.60
17080;DHT22;8655;57.106;-2.088;2023-05-02T18:32:35;19.10;48.60
17080;DHT22;8655;57.106;-2.088;2023-05-02T18:35:02;19.10;48.60
17080;DHT22;8655;57.106;-2.088;2023-05-02T18:37:28;19.10;48.60
17080;DHT22;8655;57.106;-2.088;2023-05-02T18:39:57;19.10;48.50
17080;DHT22;8655;57.106;-2.088;2023-05-02T18:42:23;19.10;48.50
17080;DHT22;8655;57.106;-2.088;2023-05-02T18:44:49;19.10;48.50
17080;DHT22;8655;57.106;-2.088;2023-05-02T18:47:15;19.10;48.50
17080;DHT22;8655;57.106;-2.088;2023-05-02T18:49:41;19.10;48.50
17080;DHT22;8655;57.106;-2.088;2023-05-02T18:52:09;19.10;48.50
17080;DHT22;8655;57.106;-2.088;2023-05-02T18:54:34;19.10;48.50
17080;DHT22;8655;57.106;-2.088;2023-05-02T18:57:00;19.10;48.50
17080;DHT22;8655;57.106;-2.088;2023-05-02T18:59:27;19.10;48.50
17080;DHT22;8655;57.106;-2.088;2023-05-02T19:01:53;19.10;48.50
17080;DHT22;8655;57.106;-2.088;2023-05-02T19:04:18;19.00;48.40
17080;DHT22;8655;57.106;-2.088;2023-05-02T19:06:44;19.00;48.30